Vidalia, GA

6:28 AM EDT on August 21, 2014 (GMT -0400)
Springhill Road | Change Station
CLOSE
Current Station
Personal Weather Station
Location: Alamo, GA
Elevation: 259 ft
Nearby Weather Stations
Active Advisory: Heat Advisory

Elev 259 ft 32.07 °N, 82.73 °W | Updated 8 minutes ago

Clear
Clear
69.8 °F
Feels Like 69.8 °F
N
2.7
Wind Variable Wind from North

Today
High -- | Low -- °F
--% Chance of Precip.
Yesterday
High -- | Low -- °F
Precip. -- in
6:57 AM 8:07 PM
Waning Crescent, 15% visible
Pressure 30.06 in
Visibility 10.0 miles
Clouds Clear
Dew Point 70 °F
Humidity 99%
Rainfall 0.00 in
Snow Depth Not available.
UV 0 out of 12
Pollen 5.50 out of 12
Air Quality Not available.
Flu Activity Not available.
METAR KAZE 211015Z AUTO 28003KT 10SM CLR 23/23 A3006 RMK AO2 T02280228

More Conditions Fewer Conditions

Pressure 30.06 in
Visibility 10.0 miles
Clouds Clear
Dew Point 70 °F
Humidity 99%
Rainfall 0.00 in
Snow Depth Not available.
UV 0 out of 12
Pollen 5.50 out of 12
Air Quality Not available.
Flu Activity Not available.
METAR KAZE 211015Z AUTO 28003KT 10SM CLR 23/23 A3006 RMK AO2 T02280228

More Conditions Fewer Conditions

10-Day Weather Forecast

Almanac

Astronomy

Aug. 21, 2014 Rise Set
Actual Time 6:57 AM EDT 8:07 PM EDT
Civil Twilight 6:32 AM EDT 8:32 PM EDT
Nautical Twilight 6:01 AM EDT 9:02 PM EDT
Astronomical Twilight 5:30 AM EDT 9:34 PM EDT
Moon 3:32 AM EDT 5:30 PM EDT
Length of Visible Light 14h 00m
Length of Day
13h 09m
Tomorrow will be 1m 49s shorter.
Waning Crescent, 15% of the Moon is Illuminated
Today
Waning Crescent
Aug 25
New
Sep 2
First Quarter
Sep 8
Full
Sep 15
Last Quarter

Today's Extremes

State Highs State Lows

Community

WunderPhotos

Upload Photos

1,745,871 photos uploaded!

Nearby

Snow Depth

Station Depth Elevation
No new snow has been reported.

Earthquake Activity

City Distance Mag. Time & Date
No recent earthquake activity has been reported nearby.
Minimum magnitude displayed is 2.5.

Coastal Water Temperatures

Place Temperature
No Stations Reporting

Nearby Weather Stations